Time;durP1;ratioP1;P1;durP2;ratioP2;P2;SDS_P1;SDS_P2;PMS_P1;PMS_P2;Temp;Humidity;BMP_temperature;BMP_pressure;BME280_temperature;BME280_humidity;BME280_pressure;Samples;Min_cycle;Max_cycle;Signal;HPM_P1;HPM_P2
2023/06/07 00:00:29;;;;;;;13.38;9.18;;;21.20;99.90;;;;;;5032091;28;20037;-76
2023/06/07 00:02:56;;;;;;;13.10;9.63;;;21.10;99.90;;;;;;5031147;28;20033;-76
2023/06/07 00:05:23;;;;;;;14.80;9.90;;;20.90;99.90;;;;;;5031012;28;20029;-76
2023/06/07 00:07:49;;;;;;;18.75;9.65;;;20.80;99.90;;;;;;5031140;28;20390;-76
2023/06/07 00:10:15;;;;;;;16.10;9.98;;;20.80;99.90;;;;;;5032312;28;20029;-76
2023/06/07 00:12:41;;;;;;;16.73;9.13;;;20.90;99.90;;;;;;5031389;28;20030;-76
2023/06/07 00:15:08;;;;;;;16.42;10.10;;;21.00;99.90;;;;;;5030769;28;20036;-75
2023/06/07 00:17:37;;;;;;;13.75;9.70;;;21.00;99.90;;;;;;5030894;28;20049;-76
2023/06/07 00:20:08;;;;;;;13.68;9.52;;;20.90;99.90;;;;;;5032469;28;20462;-75
2023/06/07 00:22:34;;;;;;;14.95;9.45;;;21.10;99.90;;;;;;5011139;28;20483;-75
2023/06/07 00:25:01;;;;;;;14.57;9.82;;;21.10;99.90;;;;;;5027738;28;20501;-76
2023/06/07 00:27:27;;;;;;;12.43;9.68;;;21.20;99.90;;;;;;5031205;28;20501;-76
2023/06/07 00:29:53;;;;;;;14.73;9.57;;;21.20;99.90;;;;;;5031083;28;20033;-76
2023/06/07 00:32:19;;;;;;;15.02;9.77;;;21.20;99.90;;;;;;5030184;28;20398;-76
2023/06/07 00:34:45;;;;;;;13.70;10.23;;;21.20;99.90;;;;;;5030688;28;20034;-76
2023/06/07 00:37:11;;;;;;;17.13;10.77;;;21.30;99.90;;;;;;5031360;28;20046;-76
2023/06/07 00:39:37;;;;;;;17.80;9.57;;;21.30;99.90;;;;;;5031607;28;20022;-76
2023/06/07 00:42:05;;;;;;;14.57;10.20;;;21.20;99.90;;;;;;5034850;28;20037;-76
2023/06/07 00:44:31;;;;;;;19.80;10.65;;;21.10;99.90;;;;;;5002523;28;20053;-76
2023/06/07 00:46:58;;;;;;;15.50;10.07;;;21.10;99.90;;;;;;5037003;28;20053;-76
2023/06/07 00:49:24;;;;;;;17.75;10.70;;;20.90;99.90;;;;;;5054888;28;20025;-76
2023/06/07 00:51:50;;;;;;;14.02;10.65;;;20.70;99.90;;;;;;5040202;28;20040;-76
2023/06/07 00:54:17;;;;;;;15.07;10.23;;;20.70;99.90;;;;;;5018389;28;20052;-76
2023/06/07 00:56:50;;;;;;;13.80;10.05;;;20.70;99.90;;;;;;5034480;28;20044;-76
2023/06/07 00:59:19;;;;;;;16.48;9.43;;;20.70;99.90;;;;;;5035942;28;20026;-77
2023/06/07 01:01:47;;;;;;;17.50;10.20;;;20.60;99.90;;;;;;5034001;28;20038;-76
2023/06/07 01:04:14;;;;;;;17.10;10.85;;;20.60;99.90;;;;;;5034434;28;20386;-76
2023/06/07 01:06:40;;;;;;;17.95;8.85;;;20.50;99.90;;;;;;5034297;28;20040;-76
2023/06/07 01:09:12;;;;;;;13.57;9.20;;;20.40;99.90;;;;;;5035898;28;20413;-76
2023/06/07 01:11:43;;;;;;;13.63;9.02;;;20.40;99.90;;;;;;5034232;28;20363;-76
2023/06/07 01:14:10;;;;;;;12.73;8.05;;;20.40;99.90;;;;;;5034564;28;20021;-76
2023/06/07 01:16:38;;;;;;;13.23;8.90;;;20.30;99.90;;;;;;5033635;28;20048;-76
2023/06/07 01:19:04;;;;;;;13.43;8.98;;;20.30;99.90;;;;;;5017922;28;20025;-76
2023/06/07 01:21:32;;;;;;;17.15;9.07;;;20.30;99.90;;;;;;5034059;28;20033;-76
2023/06/07 01:23:59;;;;;;;12.02;9.10;;;20.30;99.90;;;;;;5034463;28;20033;-76
2023/06/07 01:26:27;;;;;;;11.25;9.10;;;20.40;99.90;;;;;;5034119;28;20030;-77
2023/06/07 01:28:54;;;;;;;12.57;8.65;;;20.40;99.90;;;;;;5035419;28;20516;-76
2023/06/07 01:31:22;;;;;;;15.90;9.15;;;20.30;99.90;;;;;;5033443;28;20042;-76
2023/06/07 01:33:48;;;;;;;15.48;9.32;;;20.40;99.90;;;;;;5033963;28;20478;-76
2023/06/07 01:36:14;;;;;;;13.00;9.65;;;20.40;99.90;;;;;;5033657;28;20033;-76
2023/06/07 01:38:41;;;;;;;14.30;9.77;;;20.30;99.90;;;;;;5050577;28;20030;-76
2023/06/07 01:41:08;;;;;;;12.50;9.45;;;20.40;99.90;;;;;;5034908;28;20029;-76
2023/06/07 01:43:35;;;;;;;14.82;9.55;;;20.40;99.90;;;;;;5034045;28;20410;-76
2023/06/07 01:46:01;;;;;;;13.18;9.35;;;20.50;99.90;;;;;;5033394;28;20053;-76
2023/06/07 01:48:27;;;;;;;11.23;9.52;;;20.40;99.90;;;;;;5047368;28;20049;-76
2023/06/07 01:50:53;;;;;;;13.55;10.18;;;20.30;99.90;;;;;;5046884;28;20039;-76
2023/06/07 01:53:19;;;;;;;12.90;10.00;;;20.20;99.90;;;;;;5034968;28;20475;-76
2023/06/07 01:55:46;;;;;;;19.70;10.93;;;20.20;99.90;;;;;;5034568;28;20048;-76
2023/06/07 01:58:22;;;;;;;15.10;10.35;;;20.20;99.90;;;;;;5017508;28;20382;-76
2023/06/07 02:00:58;;;;;;;14.60;10.20;;;20.30;99.90;;;;;;5016555;28;20034;-76
2023/06/07 02:03:44;;;;;;;15.25;10.25;;;20.20;99.90;;;;;;5029026;28;20028;-76
2023/06/07 02:06:11;;;;;;;13.95;10.18;;;20.20;99.90;;;;;;5029874;28;20022;-76
2023/06/07 02:08:45;;;;;;;14.00;10.43;;;20.10;99.90;;;;;;5032109;28;20025;-76
2023/06/07 02:11:11;;;;;;;15.75;10.50;;;20.00;99.90;;;;;;5015568;28;20026;-76
2023/06/07 02:13:40;;;;;;;15.38;10.82;;;20.00;99.90;;;;;;5032138;28;20037;-76
2023/06/07 02:16:06;;;;;;;16.23;10.23;;;19.90;99.90;;;;;;5003305;28;20029;-76
2023/06/07 02:18:40;;;;;;;15.63;10.88;;;19.90;99.90;;;;;;5033065;28;20470;-76
2023/06/07 02:21:10;;;;;;;17.38;10.45;;;19.70;99.90;;;;;;5031907;28;20025;-76
2023/06/07 02:23:36;;;;;;;14.07;9.95;;;19.70;99.90;;;;;;5064340;28;20033;-77
2023/06/07 02:26:03;;;;;;;17.30;10.43;;;19.80;99.90;;;;;;5014690;28;20505;-76
2023/06/07 02:28:29;;;;;;;12.68;9.85;;;19.70;99.90;;;;;;5031944;28;20036;-76
2023/06/07 02:30:57;;;;;;;18.27;10.50;;;19.70;99.90;;;;;;5030727;28;20064;-76
2023/06/07 02:33:26;;;;;;;15.27;10.25;;;19.80;99.90;;;;;;5064128;28;20018;-76
2023/06/07 02:35:52;;;;;;;16.42;10.35;;;19.90;99.90;;;;;;5046686;28;20037;-77
2023/06/07 02:38:18;;;;;;;14.15;10.45;;;19.80;99.90;;;;;;5065153;28;20037;-76
2023/06/07 02:40:44;;;;;;;12.38;9.45;;;19.80;99.90;;;;;;5017764;28;20356;-76
2023/06/07 02:43:10;;;;;;;16.17;10.25;;;19.70;99.90;;;;;;5049566;28;20030;-77
2023/06/07 02:45:36;;;;;;;14.75;10.18;;;19.70;99.90;;;;;;5033277;28;20036;-76
2023/06/07 02:48:03;;;;;;;15.20;9.55;;;19.60;99.90;;;;;;5043069;28;20041;-76
2023/06/07 02:50:29;;;;;;;16.05;9.55;;;19.50;99.90;;;;;;5049373;28;20029;-76
2023/06/07 02:52:55;;;;;;;16.73;9.80;;;19.60;99.90;;;;;;5034060;28;20026;-76
2023/06/07 02:55:21;;;;;;;18.38;9.70;;;19.50;99.90;;;;;;5032393;28;20053;-76
2023/06/07 02:57:47;;;;;;;14.02;10.18;;;19.40;99.90;;;;;;5032512;28;20052;-76
2023/06/07 03:00:14;;;;;;;15.52;10.00;;;19.40;99.90;;;;;;5031505;28;20430;-76
2023/06/07 03:02:41;;;;;;;16.25;9.77;;;19.40;99.90;;;;;;5032833;28;20387;-76
2023/06/07 03:05:07;;;;;;;11.18;9.70;;;19.40;99.90;;;;;;5032433;28;20128;-76
2023/06/07 03:07:35;;;;;;;13.55;9.50;;;19.40;99.90;;;;;;5032558;28;20042;-76
2023/06/07 03:10:02;;;;;;;15.57;10.73;;;19.40;99.90;;;;;;5032433;28;20030;-76
2023/06/07 03:12:28;;;;;;;13.25;9.95;;;19.30;99.90;;;;;;5015756;28;20382;-76
2023/06/07 03:14:54;;;;;;;14.27;9.77;;;19.30;99.90;;;;;;5031773;28;20029;-76
2023/06/07 03:17:21;;;;;;;14.98;9.55;;;19.20;99.90;;;;;;5031302;28;20045;-77
2023/06/07 03:19:47;;;;;;;17.10;10.02;;;19.10;99.90;;;;;;5033448;28;20017;-76
2023/06/07 03:22:13;;;;;;;13.65;10.40;;;19.00;99.90;;;;;;5031720;28;20056;-76
2023/06/07 03:24:39;;;;;;;12.57;9.32;;;19.10;99.90;;;;;;5033234;28;20463;-76
2023/06/07 03:27:08;;;;;;;17.27;9.88;;;19.00;99.90;;;;;;5031274;28;20046;-76
2023/06/07 03:29:34;;;;;;;16.85;9.88;;;19.00;99.90;;;;;;5031784;28;20042;-77
2023/06/07 03:32:00;;;;;;;13.68;9.57;;;19.00;99.90;;;;;;5031197;28;20029;-76
2023/06/07 03:34:29;;;;;;;15.00;9.65;;;19.00;99.90;;;;;;5031973;28;20034;-76
2023/06/07 03:36:56;;;;;;;18.15;9.05;;;19.00;99.90;;;;;;5031292;28;20402;-76
2023/06/07 03:39:22;;;;;;;16.60;9.40;;;19.00;99.90;;;;;;5031701;28;20038;-76
2023/06/07 03:41:48;;;;;;;16.55;9.55;;;19.10;99.90;;;;;;5031650;28;20036;-76
2023/06/07 03:44:14;;;;;;;17.83;9.43;;;19.20;99.90;;;;;;5031334;28;20475;-77
2023/06/07 03:46:41;;;;;;;16.83;9.77;;;19.30;99.90;;;;;;5014100;28;20054;-76
2023/06/07 03:49:08;;;;;;;14.15;9.55;;;19.30;99.90;;;;;;5052333;28;20021;-76
2023/06/07 03:51:38;;;;;;;13.18;9.10;;;19.10;99.90;;;;;;5034329;28;20136;-77
2023/06/07 03:54:04;;;;;;;12.73;8.98;;;19.10;99.90;;;;;;5051464;28;20033;-77
2023/06/07 03:56:30;;;;;;;11.75;9.23;;;19.10;99.90;;;;;;5044735;28;20048;-77
2023/06/07 03:58:57;;;;;;;16.50;9.40;;;19.00;99.90;;;;;;5014491;28;20038;-77
2023/06/07 04:01:25;;;;;;;12.27;8.75;;;18.90;99.90;;;;;;5030834;28;20045;-76
2023/06/07 04:03:52;;;;;;;14.93;9.25;;;18.90;99.90;;;;;;5032629;28;20033;-77
2023/06/07 04:06:20;;;;;;;13.02;9.38;;;18.90;99.90;;;;;;5030773;28;20049;-76
2023/06/07 04:08:47;;;;;;;9.80;8.50;;;19.00;99.90;;;;;;5031400;28;20052;-76
2023/06/07 04:11:13;;;;;;;14.27;9.07;;;18.80;99.90;;;;;;5014567;28;20045;-77
2023/06/07 04:13:42;;;;;;;12.80;9.85;;;18.70;99.90;;;;;;5014385;28;20475;-76
2023/06/07 04:16:08;;;;;;;17.42;10.00;;;18.70;99.90;;;;;;5031574;28;20398;-76
2023/06/07 04:18:34;;;;;;;13.95;8.95;;;18.60;99.90;;;;;;5032416;28;20048;-75
2023/06/07 04:21:00;;;;;;;13.40;8.90;;;18.60;99.90;;;;;;5031864;28;20029;-76
2023/06/07 04:23:26;;;;;;;12.07;8.60;;;18.60;99.90;;;;;;5030555;28;20394;-76
2023/06/07 04:25:55;;;;;;;16.13;8.88;;;18.60;99.90;;;;;;5047543;28;20025;-76
2023/06/07 04:28:23;;;;;;;12.93;9.40;;;18.50;99.90;;;;;;5063389;28;20493;-76
2023/06/07 04:30:51;;;;;;;15.07;9.77;;;18.50;99.90;;;;;;5030181;28;20041;-76
2023/06/07 04:33:19;;;;;;;13.90;9.50;;;18.60;99.90;;;;;;5047250;28;20026;-76
2023/06/07 04:35:50;;;;;;;12.95;8.73;;;18.60;99.90;;;;;;5042205;28;20045;-76
2023/06/07 04:38:20;;;;;;;17.35;10.15;;;18.50;99.90;;;;;;5014594;28;20410;-76
2023/06/07 04:40:50;;;;;;;14.70;9.32;;;18.60;99.90;;;;;;5031967;28;20052;-76
2023/06/07 04:43:19;;;;;;;14.68;9.13;;;18.60;99.90;;;;;;5031552;28;20032;-76
2023/06/07 04:45:55;;;;;;;11.23;9.30;;;18.60;99.90;;;;;;5029975;28;20044;-77
2023/06/07 04:48:25;;;;;;;14.05;9.70;;;18.60;99.90;;;;;;5028629;28;20045;-77
2023/06/07 04:50:53;;;;;;;12.48;9.35;;;18.50;99.90;;;;;;5028314;28;20041;-76
2023/06/07 04:53:19;;;;;;;14.82;10.23;;;18.50;99.90;;;;;;5031113;28;20029;-77
2023/06/07 04:55:47;;;;;;;13.60;9.77;;;18.60;99.90;;;;;;5030538;28;20030;-76
2023/06/07 04:58:16;;;;;;;15.65;10.10;;;18.80;99.90;;;;;;5030757;28;20045;-76
2023/06/07 05:00:42;;;;;;;13.57;10.00;;;18.80;99.90;;;;;;5029966;28;20532;-77
2023/06/07 05:03:08;;;;;;;16.88;9.07;;;18.80;99.90;;;;;;5030408;28;20041;-76
2023/06/07 05:05:35;;;;;;;14.02;9.10;;;18.70;99.90;;;;;;5030283;28;20064;-77
2023/06/07 05:08:01;;;;;;;12.50;8.65;;;18.70;99.90;;;;;;5030914;28;20040;-77
2023/06/07 05:10:27;;;;;;;12.40;9.15;;;18.80;99.90;;;;;;5030603;28;20032;-77
2023/06/07 05:12:53;;;;;;;13.90;8.68;;;18.90;99.90;;;;;;5030330;28;20033;-77
2023/06/07 05:15:21;;;;;;;12.98;8.43;;;19.00;99.90;;;;;;5029891;28;20506;-77
2023/06/07 05:17:48;;;;;;;16.13;9.13;;;19.10;99.90;;;;;;5030648;28;20394;-76
2023/06/07 05:20:15;;;;;;;15.77;9.25;;;19.10;99.90;;;;;;4997653;28;20038;-77
2023/06/07 05:22:41;;;;;;;14.95;9.40;;;19.30;99.90;;;;;;5046794;28;20049;-76
2023/06/07 05:25:12;;;;;;;16.85;8.32;;;19.40;99.90;;;;;;5046898;28;20021;-76
2023/06/07 05:27:38;;;;;;;15.07;8.70;;;19.50;99.90;;;;;;5046708;28;20403;-77
2023/06/07 05:30:06;;;;;;;13.70;8.65;;;19.60;99.90;;;;;;5030553;28;20041;-77
2023/06/07 05:32:35;;;;;;;9.93;8.38;;;19.80;99.90;;;;;;5033515;28;20033;-77
2023/06/07 05:35:02;;;;;;;14.50;8.38;;;19.80;99.90;;;;;;5050569;28;20073;-77
2023/06/07 05:37:29;;;;;;;15.57;8.10;;;19.90;99.90;;;;;;5056877;28;20505;-76
2023/06/07 05:39:55;;;;;;;10.77;7.53;;;20.10;99.90;;;;;;5050084;28;20033;-78
2023/06/07 05:42:21;;;;;;;14.00;7.68;;;20.30;99.90;;;;;;5050163;28;20037;-76
2023/06/07 05:44:48;;;;;;;12.48;7.28;;;20.20;99.90;;;;;;5033967;28;20036;-77
2023/06/07 05:47:15;;;;;;;16.48;7.50;;;20.30;99.90;;;;;;5037333;28;20057;-76
2023/06/07 05:49:44;;;;;;;10.90;7.13;;;20.30;99.90;;;;;;5053911;28;20393;-77
2023/06/07 05:52:10;;;;;;;13.32;7.75;;;20.40;99.90;;;;;;5037043;28;20033;-77
2023/06/07 05:54:39;;;;;;;12.82;7.28;;;20.50;99.90;;;;;;5034505;28;20021;-77
2023/06/07 05:57:06;;;;;;;10.93;7.22;;;20.60;99.90;;;;;;5033454;28;20033;-76
2023/06/07 05:59:32;;;;;;;11.18;6.95;;;20.60;99.90;;;;;;5033835;28;20359;-76
2023/06/07 06:01:59;;;;;;;11.48;7.65;;;20.70;99.90;;;;;;5032424;28;20040;-76
2023/06/07 06:04:25;;;;;;;13.57;7.40;;;20.50;99.90;;;;;;5033517;28;20470;-77
2023/06/07 06:06:52;;;;;;;9.63;6.85;;;20.50;99.90;;;;;;5016263;28;20052;-76
2023/06/07 06:09:19;;;;;;;9.18;6.70;;;20.50;99.90;;;;;;5033383;28;20026;-77
2023/06/07 06:11:45;;;;;;;16.05;7.13;;;20.60;99.90;;;;;;5034246;28;20032;-76
2023/06/07 06:14:11;;;;;;;9.30;7.57;;;20.80;99.90;;;;;;5033404;28;20037;-76
2023/06/07 06:16:37;;;;;;;11.77;7.70;;;20.80;99.90;;;;;;5032477;28;20041;-76
2023/06/07 06:19:03;;;;;;;9.23;6.72;;;20.80;99.90;;;;;;5033308;28;20042;-79
2023/06/07 06:21:30;;;;;;;19.00;7.57;;;20.80;99.90;;;;;;5033004;28;20029;-79
2023/06/07 06:23:56;;;;;;;13.70;7.30;;;20.80;99.90;;;;;;5032828;28;20030;-78
2023/06/07 06:26:22;;;;;;;10.13;7.53;;;20.90;99.90;;;;;;5016402;28;20399;-79
2023/06/07 06:28:48;;;;;;;11.93;7.85;;;21.20;99.90;;;;;;5033177;28;20029;-79
2023/06/07 06:31:14;;;;;;;10.95;7.60;;;21.30;99.90;;;;;;5032353;28;20048;-77
2023/06/07 06:33:40;;;;;;;9.45;7.50;;;21.30;99.90;;;;;;5032523;28;20041;-79
2023/06/07 06:36:07;;;;;;;11.88;7.25;;;21.30;99.90;;;;;;5032634;28;20037;-79
2023/06/07 06:38:33;;;;;;;10.63;7.47;;;21.30;99.90;;;;;;5047744;28;20506;-79
2023/06/07 06:40:59;;;;;;;10.25;7.55;;;21.50;99.90;;;;;;5034113;28;20037;-79
2023/06/07 06:43:25;;;;;;;10.75;7.40;;;21.50;99.90;;;;;;5033011;28;20470;-80
2023/06/07 06:45:51;;;;;;;15.10;7.18;;;21.60;99.90;;;;;;5033468;28;20034;-79
2023/06/07 06:48:17;;;;;;;7.43;5.65;;;21.60;99.90;;;;;;5045374;28;20056;-80
2023/06/07 06:50:46;;;;;;;11.13;7.20;;;21.60;99.90;;;;;;5047758;28;20030;-79
2023/06/07 06:53:12;;;;;;;18.92;7.45;;;21.60;99.90;;;;;;5033473;28;20032;-79
2023/06/07 06:55:39;;;;;;;9.73;7.18;;;21.60;99.90;;;;;;5033573;28;20176;-79
2023/06/07 06:58:05;;;;;;;11.23;7.68;;;21.80;99.90;;;;;;5033662;28;20045;-80
2023/06/07 07:00:35;;;;;;;8.27;6.90;;;22.00;99.90;;;;;;5031769;28;20040;-77
2023/06/07 07:03:02;;;;;;;11.68;7.05;;;22.00;99.90;;;;;;5033590;28;20347;-77
2023/06/07 07:05:28;;;;;;;17.73;6.47;;;22.00;99.90;;;;;;5032327;28;20036;-77
2023/06/07 07:07:54;;;;;;;10.55;6.22;;;21.90;99.90;;;;;;5031788;28;20034;-76
2023/06/07 07:10:20;;;;;;;8.27;5.90;;;22.00;99.90;;;;;;5032012;28;20032;-77
2023/06/07 07:12:46;;;;;;;8.57;6.78;;;22.30;99.90;;;;;;5033451;28;20098;-76
2023/06/07 07:15:12;;;;;;;10.15;6.82;;;22.50;99.90;;;;;;5031083;28;20548;-77
2023/06/07 07:17:48;;;;;;;12.63;6.95;;;22.50;99.90;;;;;;5031824;28;20041;-76
2023/06/07 07:20:16;;;;;;;11.65;6.75;;;22.50;99.90;;;;;;4998945;28;20045;-77
2023/06/07 07:22:44;;;;;;;9.23;6.25;;;22.60;99.90;;;;;;5064996;28;20017;-76
2023/06/07 07:25:10;;;;;;;10.75;6.72;;;22.60;99.90;;;;;;5064710;28;20029;-77
2023/06/07 07:27:36;;;;;;;10.35;6.65;;;22.80;99.90;;;;;;5032009;28;20040;-77
2023/06/07 07:30:04;;;;;;;8.48;6.97;;;22.80;99.90;;;;;;5031301;28;20048;-76
2023/06/07 07:32:31;;;;;;;19.60;6.82;;;23.00;99.90;;;;;;5048287;28;20467;-77
2023/06/07 07:34:57;;;;;;;9.45;6.38;;;23.20;99.90;;;;;;5032014;28;20040;-77
2023/06/07 07:37:23;;;;;;;12.80;6.75;;;23.30;99.90;;;;;;5030897;28;20049;-76
2023/06/07 07:39:49;;;;;;;10.48;7.05;;;23.40;99.70;;;;;;5065061;28;20032;-77
2023/06/07 07:42:15;;;;;;;9.23;6.75;;;23.40;99.50;;;;;;5048177;28;20052;-77
2023/06/07 07:44:41;;;;;;;10.68;6.90;;;23.40;99.00;;;;;;5032867;28;20025;-77
2023/06/07 07:47:07;;;;;;;9.90;6.57;;;23.40;99.30;;;;;;5035249;28;20052;-76
2023/06/07 07:49:33;;;;;;;8.18;6.75;;;23.40;99.20;;;;;;5051301;28;20454;-76
2023/06/07 07:52:00;;;;;;;9.73;6.22;;;23.40;99.20;;;;;;5036752;28;20042;-77
2023/06/07 07:54:27;;;;;;;8.80;6.30;;;23.60;99.00;;;;;;5031562;28;20036;-77
2023/06/07 07:56:53;;;;;;;10.30;7.03;;;23.80;99.40;;;;;;5031387;28;20049;-76
2023/06/07 07:59:19;;;;;;;8.63;7.15;;;23.90;99.10;;;;;;5014840;28;20037;-76
2023/06/07 08:01:45;;;;;;;12.02;6.90;;;24.20;98.40;;;;;;5030397;28;20044;-76
2023/06/07 08:04:11;;;;;;;15.20;6.90;;;24.30;98.40;;;;;;5031129;28;20037;-77
2023/06/07 08:06:40;;;;;;;17.42;7.45;;;24.30;97.80;;;;;;5030767;28;20037;-77
2023/06/07 08:09:06;;;;;;;15.15;7.20;;;24.40;97.90;;;;;;5031284;28;20025;-77
2023/06/07 08:11:32;;;;;;;9.65;6.50;;;24.60;97.70;;;;;;5030849;28;20064;-77
2023/06/07 08:13:58;;;;;;;13.80;6.70;;;24.40;97.30;;;;;;5032359;28;20029;-76
2023/06/07 08:16:25;;;;;;;8.32;6.40;;;24.40;98.00;;;;;;5030470;28;20056;-76
2023/06/07 08:18:57;;;;;;;10.18;6.68;;;24.60;98.00;;;;;;5032483;28;20041;-77
2023/06/07 08:21:24;;;;;;;9.57;6.82;;;24.60;97.30;;;;;;5030664;28;20033;-76
2023/06/07 08:23:53;;;;;;;8.90;6.80;;;24.90;97.00;;;;;;5031257;28;20037;-76
2023/06/07 08:26:19;;;;;;;13.13;7.28;;;24.90;97.30;;;;;;5030871;28;20026;-76
2023/06/07 08:28:45;;;;;;;10.10;7.07;;;25.00;96.90;;;;;;5031103;28;20359;-76
2023/06/07 08:31:11;;;;;;;11.60;6.93;;;25.30;96.90;;;;;;5031586;28;20040;-76
2023/06/07 08:33:38;;;;;;;11.15;7.07;;;25.40;96.10;;;;;;5014103;28;20410;-76
2023/06/07 08:36:04;;;;;;;11.15;6.90;;;25.40;96.30;;;;;;5030110;28;20038;-76
2023/06/07 08:38:30;;;;;;;11.43;7.10;;;25.40;96.00;;;;;;5047436;28;20049;-76
2023/06/07 08:40:58;;;;;;;8.88;7.35;;;25.40;95.30;;;;;;5031981;28;20029;-76
2023/06/07 08:43:25;;;;;;;10.88;7.00;;;25.50;95.20;;;;;;5031064;28;20030;-77
2023/06/07 08:45:51;;;;;;;9.02;6.82;;;25.60;95.30;;;;;;5030209;28;20037;-76
2023/06/07 08:48:17;;;;;;;8.70;7.57;;;25.70;95.50;;;;;;5042955;28;20485;-77
2023/06/07 08:50:46;;;;;;;10.18;7.18;;;25.80;95.00;;;;;;5045792;28;20383;-76
2023/06/07 08:53:13;;;;;;;13.85;7.57;;;26.10;95.20;;;;;;5031002;28;20485;-76
2023/06/07 08:55:39;;;;;;;14.38;7.72;;;26.20;94.70;;;;;;5030270;28;20041;-76
2023/06/07 08:58:09;;;;;;;9.57;7.28;;;26.20;95.00;;;;;;5030651;28;20044;-76
2023/06/07 09:00:35;;;;;;;11.98;7.88;;;26.20;94.60;;;;;;5030644;28;20041;-75
2023/06/07 09:03:02;;;;;;;9.40;7.95;;;26.30;94.60;;;;;;5034296;28;20319;-76
2023/06/07 09:05:28;;;;;;;9.48;7.60;;;26.60;94.40;;;;;;5034386;28;20382;-76
2023/06/07 09:07:54;;;;;;;8.25;7.43;;;26.50;94.40;;;;;;5036071;28;20026;-76
2023/06/07 09:10:20;;;;;;;8.18;7.35;;;26.50;94.60;;;;;;5034065;28;20041;-76
2023/06/07 09:12:47;;;;;;;9.25;6.95;;;26.60;94.30;;;;;;5034484;28;20033;-76
2023/06/07 09:15:17;;;;;;;8.27;7.45;;;26.50;93.90;;;;;;5035117;28;20032;-76
2023/06/07 09:17:53;;;;;;;10.35;7.47;;;26.40;93.80;;;;;;5035133;28;20391;-75
2023/06/07 09:20:20;;;;;;;10.88;7.70;;;26.60;94.00;;;;;;5034128;28;20052;-76
2023/06/07 09:23:08;;;;;;;8.93;7.35;;;26.70;94.00;;;;;;5067620;28;20029;-76
2023/06/07 09:25:35;;;;;;;10.25;7.88;;;26.70;93.30;;;;;;5050435;28;20049;-76
2023/06/07 09:28:09;;;;;;;14.95;8.00;;;26.80;92.80;;;;;;5050941;28;20470;-75
2023/06/07 09:30:36;;;;;;;8.05;7.20;;;26.80;92.60;;;;;;5066299;28;20057;-75
2023/06/07 09:33:03;;;;;;;8.90;8.07;;;26.90;92.70;;;;;;5067189;28;20474;-76
2023/06/07 09:35:29;;;;;;;12.55;8.02;;;27.00;92.30;;;;;;5050516;28;20376;-76
2023/06/07 09:37:55;;;;;;;8.20;7.43;;;27.10;92.00;;;;;;5035146;28;20379;-75
2023/06/07 09:40:22;;;;;;;9.32;8.07;;;27.20;92.40;;;;;;5050061;28;20040;-76
2023/06/07 09:43:00;;;;;;;8.40;7.57;;;27.30;92.30;;;;;;5034000;28;20045;-77
2023/06/07 09:45:27;;;;;;;10.35;7.40;;;27.50;91.50;;;;;;5033198;28;20037;-76
2023/06/07 09:48:04;;;;;;;9.35;7.57;;;27.50;91.10;;;;;;5044151;28;20060;-76
2023/06/07 09:50:30;;;;;;;8.43;7.63;;;27.20;91.20;;;;;;5050719;28;20033;-76
2023/06/07 09:52:57;;;;;;;12.00;7.82;;;27.20;91.50;;;;;;5034963;28;20389;-76
2023/06/07 09:55:28;;;;;;;13.15;8.73;;;27.30;91.60;;;;;;5016930;28;20033;-76
2023/06/07 09:57:55;;;;;;;10.32;8.25;;;27.40;90.90;;;;;;5034005;28;20036;-75
2023/06/07 10:00:21;;;;;;;9.20;7.90;;;27.50;90.10;;;;;;5032977;28;20029;-75
2023/06/07 10:02:49;;;;;;;10.73;8.38;;;27.50;88.30;;;;;;5033240;28;20025;-76
2023/06/07 10:05:15;;;;;;;9.98;7.82;;;27.70;89.10;;;;;;5033415;28;20041;-75
2023/06/07 10:07:42;;;;;;;8.52;7.68;;;28.00;89.80;;;;;;5033539;28;20026;-75
2023/06/07 10:10:11;;;;;;;11.88;8.32;;;28.00;86.60;;;;;;5033573;28;20037;-76
2023/06/07 10:12:40;;;;;;;9.10;7.95;;;28.00;86.60;;;;;;5013556;28;20030;-75
2023/06/07 10:15:29;;;;;;;8.88;7.82;;;28.20;84.70;;;;;;5029551;28;20030;-76
2023/06/07 10:18:04;;;;;;;8.07;7.38;;;28.30;83.30;;;;;;5044526;28;20049;-74
2023/06/07 10:20:35;;;;;;;9.95;8.88;;;28.40;82.60;;;;;;5017169;28;20037;-76
2023/06/07 10:23:10;;;;;;;10.90;8.55;;;28.50;82.50;;;;;;5049814;28;20036;-76
2023/06/07 10:25:41;;;;;;;13.73;9.20;;;28.70;83.10;;;;;;5066253;28;20378;-76
2023/06/07 10:28:21;;;;;;;9.40;8.50;;;28.80;81.10;;;;;;5066519;28;20030;-75
2023/06/07 10:31:05;;;;;;;9.80;7.45;;;28.70;77.10;;;;;;5048385;28;20044;-75
2023/06/07 10:33:32;;;;;;;8.93;8.05;;;28.80;75.40;;;;;;5034497;28;20030;-76
2023/06/07 10:35:59;;;;;;;9.35;8.63;;;28.80;73.30;;;;;;5032683;28;20034;-75
2023/06/07 10:38:28;;;;;;;7.63;7.03;;;28.70;71.30;;;;;;5049276;28;20041;-76
2023/06/07 10:40:55;;;;;;;9.93;9.02;;;28.70;72.00;;;;;;5048897;28;20030;-76
2023/06/07 10:43:21;;;;;;;10.73;9.80;;;28.60;71.50;;;;;;5066074;28;20045;-76
2023/06/07 10:45:47;;;;;;;10.18;9.38;;;28.60;69.70;;;;;;5043337;28;20048;-76
2023/06/07 10:48:34;;;;;;;16.33;14.80;;;28.80;69.80;;;;;;5044689;28;20049;-76
2023/06/07 10:51:00;;;;;;;10.50;8.85;;;29.00;70.50;;;;;;5045251;28;20036;-75
2023/06/07 10:53:48;;;;;;;9.75;8.88;;;28.90;72.70;;;;;;5032887;28;20382;-76
2023/06/07 10:56:27;;;;;;;10.68;9.63;;;29.00;73.20;;;;;;5018508;28;20041;-76
2023/06/07 10:58:53;;;;;;;10.05;9.10;;;29.10;70.60;;;;;;5032306;28;20041;-76
2023/06/07 11:01:24;;;;;;;9.93;9.23;;;29.20;70.00;;;;;;5015088;28;20406;-76
2023/06/07 11:03:50;;;;;;;11.32;10.32;;;29.10;69.50;;;;;;5033682;28;20037;-76
2023/06/07 11:06:17;;;;;;;10.10;9.30;;;28.90;71.10;;;;;;5032047;28;20520;-76
2023/06/07 11:08:43;;;;;;;12.23;9.95;;;28.90;70.40;;;;;;5016044;28;20480;-75
2023/06/07 11:11:42;;;;;;;10.25;9.35;;;29.00;69.00;;;;;;5032170;28;20040;-76
2023/06/07 11:14:09;;;;;;;10.60;9.60;;;29.20;70.40;;;;;;4972177;28;20050;-76
2023/06/07 11:16:36;;;;;;;11.38;10.05;;;29.10;69.90;;;;;;4971703;28;20704;-75
2023/06/07 11:19:09;;;;;;;10.70;9.82;;;29.30;69.90;;;;;;4956417;28;20180;-76
2023/06/07 11:22:06;;;;;;;11.63;9.82;;;29.40;69.20;;;;;;4971687;28;20534;-76
2023/06/07 11:24:34;;;;;;;11.40;10.25;;;29.40;68.30;;;;;;4971772;28;20058;-76
2023/06/07 11:27:00;;;;;;;12.23;10.18;;;29.50;68.90;;;;;;4952729;28;20035;-75
2023/06/07 11:29:27;;;;;;;11.15;10.23;;;29.70;67.30;;;;;;4936446;29;20051;-76
2023/06/07 11:31:58;;;;;;;10.38;9.45;;;29.70;67.10;;;;;;4966261;28;20034;-76
2023/06/07 11:34:26;;;;;;;11.38;10.25;;;29.50;65.50;;;;;;4956249;28;20493;-76
2023/06/07 11:37:12;;;;;;;10.93;9.05;;;29.40;65.30;;;;;;4955776;28;20042;-76
2023/06/07 11:39:38;;;;;;;10.13;9.38;;;29.50;65.20;;;;;;4956807;28;20483;-77
2023/06/07 11:42:05;;;;;;;12.25;10.00;;;29.50;64.70;;;;;;4971750;28;20038;-76
2023/06/07 11:44:32;;;;;;;12.45;11.57;;;29.60;66.10;;;;;;4955761;28;20066;-76
2023/06/07 11:47:00;;;;;;;11.00;10.20;;;29.90;63.90;;;;;;4954973;28;20047;-76
2023/06/07 11:49:28;;;;;;;12.35;11.25;;;30.00;63.70;;;;;;4996092;28;20045;-76
2023/06/07 11:51:58;;;;;;;10.73;9.93;;;29.90;62.90;;;;;;5036192;28;20489;-76
2023/06/07 11:54:25;;;;;;;11.05;10.35;;;29.80;64.60;;;;;;5030917;28;20057;-77
2023/06/07 11:56:53;;;;;;;10.57;9.75;;;29.80;64.10;;;;;;5013927;28;20044;-76
2023/06/07 11:59:20;;;;;;;11.90;10.68;;;29.90;64.70;;;;;;5030721;28;20030;-75
2023/06/07 12:01:53;;;;;;;11.45;10.50;;;30.00;64.40;;;;;;5031036;28;20045;-76
2023/06/07 12:04:20;;;;;;;11.35;10.43;;;30.30;64.70;;;;;;5030637;28;20044;-76
2023/06/07 12:06:48;;;;;;;13.15;10.30;;;30.30;63.60;;;;;;5013840;28;20053;-76
2023/06/07 12:09:14;;;;;;;11.32;10.25;;;30.10;63.60;;;;;;5030751;28;20021;-77
2023/06/07 12:11:41;;;;;;;11.73;10.73;;;30.00;64.00;;;;;;5029927;28;20037;-76
2023/06/07 12:14:09;;;;;;;12.57;11.43;;;30.20;63.40;;;;;;5030655;28;20029;-75
2023/06/07 12:16:38;;;;;;;10.63;9.68;;;30.30;62.70;;;;;;5029889;28;20041;-75
2023/06/07 12:19:05;;;;;;;11.30;10.30;;;30.30;63.10;;;;;;5014479;28;20386;-76
2023/06/07 12:21:31;;;;;;;11.60;10.48;;;30.20;62.50;;;;;;5013527;28;20037;-77
2023/06/07 12:23:59;;;;;;;10.65;9.95;;;30.10;62.40;;;;;;5030342;28;20029;-76
2023/06/07 12:26:26;;;;;;;13.77;9.70;;;30.30;63.40;;;;;;5052621;28;20037;-76
2023/06/07 12:28:53;;;;;;;11.93;10.95;;;30.40;62.30;;;;;;5011920;28;20026;-76
2023/06/07 12:31:19;;;;;;;11.43;10.45;;;30.30;62.70;;;;;;5035801;28;20052;-76
2023/06/07 12:34:11;;;;;;;13.10;10.70;;;30.30;63.40;;;;;;5031530;28;20438;-76
2023/06/07 12:36:40;;;;;;;12.18;11.02;;;30.40;63.40;;;;;;5043949;28;20045;-76
2023/06/07 12:39:08;;;;;;;11.70;10.70;;;30.30;63.30;;;;;;5062580;28;20391;-76